Time,TemperatureF,DewpointF,PressureIn,WindDirection,WindDirectionDegrees,WindSpeedMPH,WindSpeedGustMPH,Humidity,HourlyPrecipIn,Conditions,Clouds,dailyrainin,SolarRadiationWatts/m^2,SoftwareType,DateUTC
2013-04-15 00:12:00,35.0,20.0,-100.00,SSE,149,11.0,22.0,54,0.00,,,0.14,0.000000,,2013-04-15 06:12:00,
2013-04-15 00:22:00,35.0,20.0,-100.00,SSE,149,11.0,22.0,54,0.00,,,0.14,0.000000,,2013-04-15 06:22:00,
2013-04-15 00:33:00,35.0,20.0,-100.00,SSE,149,11.0,22.0,54,0.00,,,0.14,0.000000,,2013-04-15 06:33:00,
2013-04-15 00:42:00,35.0,20.0,-100.00,SSE,149,11.0,22.0,54,0.00,,,0.14,0.000000,,2013-04-15 06:42:00,
2013-04-15 01:41:00,32.0,25.0,-100.00,West,262,10.0,15.0,75,0.00,,,0.14,0.000000,,2013-04-15 07:41:00,
2013-04-15 01:42:00,32.0,25.0,-100.00,West,262,10.0,15.0,75,0.00,,,0.14,0.000000,,2013-04-15 07:42:00,
2013-04-15 02:13:00,31.0,30.0,-100.00,SSW,209,6.0,15.0,97,0.00,,,0.14,0.000000,,2013-04-15 08:13:00,
2013-04-15 02:22:00,31.0,30.0,-100.00,SSW,209,6.0,15.0,97,0.00,,,0.14,0.000000,,2013-04-15 08:22:00,
2013-04-15 02:33:00,31.0,30.0,-100.00,SSW,209,6.0,15.0,97,0.00,,,0.14,0.000000,,2013-04-15 08:33:00,
2013-04-15 02:42:00,31.0,30.0,-100.00,SSW,209,6.0,15.0,97,0.00,,,0.14,0.000000,,2013-04-15 08:42:00,
2013-04-15 03:12:00,32.0,28.0,-100.00,South,177,8.0,17.0,85,0.00,,,0.14,0.000000,,2013-04-15 09:12:00,
2013-04-15 03:22:00,32.0,28.0,-100.00,South,177,8.0,17.0,85,0.00,,,0.14,0.000000,,2013-04-15 09:22:00,
2013-04-15 03:32:00,32.0,28.0,-100.00,South,177,8.0,17.0,85,0.00,,,0.14,0.000000,,2013-04-15 09:32:00,
2013-04-15 03:42:00,32.0,28.0,-100.00,South,177,8.0,17.0,85,0.00,,,0.14,0.000000,,2013-04-15 09:42:00,
2013-04-15 04:13:00,30.0,28.0,-100.00,West,267,4.0,18.0,91,0.00,,,0.14,0.000000,,2013-04-15 10:13:00,
2013-04-15 04:23:00,30.0,28.0,-100.00,West,267,4.0,18.0,91,0.00,,,0.14,0.000000,,2013-04-15 10:23:00,
2013-04-15 04:33:00,30.0,28.0,-100.00,West,267,4.0,18.0,91,0.00,,,0.14,0.000000,,2013-04-15 10:33:00,
2013-04-15 04:42:00,30.0,28.0,-100.00,West,267,4.0,18.0,91,0.00,,,0.14,0.000000,,2013-04-15 10:42:00,
2013-04-15 05:12:00,31.0,27.0,-100.00,WSW,246,9.0,16.0,85,0.00,,,0.14,0.000000,,2013-04-15 11:12:00,
2013-04-15 05:22:00,31.0,27.0,-100.00,WSW,246,9.0,16.0,85,0.00,,,0.14,0.000000,,2013-04-15 11:22:00,
2013-04-15 05:32:00,31.0,27.0,-100.00,WSW,246,9.0,16.0,85,0.00,,,0.14,0.000000,,2013-04-15 11:32:00,
2013-04-15 05:42:00,31.0,27.0,-100.00,WSW,246,9.0,16.0,85,0.00,,,0.14,0.000000,,2013-04-15 11:42:00,
2013-04-15 06:23:00,31.0,28.0,-100.00,SW,231,10.0,18.0,87,0.00,,,0.14,0.000000,,2013-04-15 12:23:00,
2013-04-15 06:33:00,31.0,28.0,-100.00,SW,231,10.0,18.0,87,0.00,,,0.14,0.000000,,2013-04-15 12:33:00,
2013-04-15 06:42:00,31.0,28.0,-100.00,SW,231,10.0,18.0,87,0.00,,,0.14,0.000000,,2013-04-15 12:42:00,
2013-04-15 07:12:00,29.0,27.0,-100.00,NNE,29,0.0,11.0,93,0.00,,,0.14,2.000000,,2013-04-15 13:12:00,
2013-04-15 07:23:00,29.0,27.0,-100.00,NNE,29,0.0,11.0,93,0.00,,,0.14,2.000000,,2013-04-15 13:23:00,
2013-04-15 07:33:00,29.0,27.0,-100.00,NNE,29,0.0,11.0,93,0.00,,,0.14,2.000000,,2013-04-15 13:33:00,
2013-04-15 07:42:00,29.0,27.0,-100.00,NNE,29,0.0,11.0,93,0.00,,,0.14,2.000000,,2013-04-15 13:42:00,
2013-04-15 08:12:00,35.0,26.0,-100.00,South,180,8.0,11.0,70,0.00,,,0.14,57.000000,,2013-04-15 14:12:00,
2013-04-15 08:22:00,35.0,26.0,-100.00,South,180,8.0,11.0,70,0.00,,,0.14,57.000000,,2013-04-15 14:22:00,
2013-04-15 08:32:00,35.0,26.0,-100.00,South,180,8.0,11.0,70,0.00,,,0.14,57.000000,,2013-04-15 14:32:00,
2013-04-15 08:43:00,35.0,26.0,-100.00,South,180,8.0,11.0,70,0.00,,,0.14,57.000000,,2013-04-15 14:43:00,
2013-04-15 09:13:00,36.0,24.0,-100.00,SSW,210,9.0,13.0,62,0.00,,,0.14,185.000000,,2013-04-15 15:13:00,
2013-04-15 09:23:00,36.0,24.0,-100.00,SSW,210,9.0,13.0,62,0.00,,,0.14,185.000000,,2013-04-15 15:23:00,
2013-04-15 09:34:00,36.0,24.0,-100.00,SSW,210,9.0,13.0,62,0.00,,,0.14,185.000000,,2013-04-15 15:34:00,
2013-04-15 09:43:00,36.0,24.0,-100.00,SSW,210,9.0,13.0,62,0.00,,,0.14,185.000000,,2013-04-15 15:43:00,
2013-04-15 10:13:00,38.0,26.0,-100.00,SW,228,17.0,21.0,62,0.00,,,-99.99,395.000000,,2013-04-15 16:13:00,
2013-04-15 10:23:00,38.0,26.0,-100.00,SW,228,17.0,21.0,62,0.00,,,-99.99,395.000000,,2013-04-15 16:23:00,
2013-04-15 10:33:00,38.0,26.0,-100.00,SW,228,17.0,21.0,62,0.00,,,-99.99,395.000000,,2013-04-15 16:33:00,
2013-04-15 10:43:00,38.0,26.0,-100.00,SW,228,17.0,21.0,62,0.00,,,-99.99,395.000000,,2013-04-15 16:43:00,
2013-04-15 11:14:00,41.0,23.0,-100.00,WSW,242,18.0,27.0,48,0.00,,,0.14,500.000000,,2013-04-15 17:14:00,
2013-04-15 11:21:00,41.0,23.0,-100.00,WSW,242,18.0,27.0,48,0.00,,,0.14,500.000000,,2013-04-15 17:21:00,
2013-04-15 11:32:00,41.0,23.0,-100.00,WSW,242,18.0,27.0,48,0.00,,,0.14,500.000000,,2013-04-15 17:32:00,
2013-04-15 11:43:00,41.0,23.0,-100.00,WSW,242,18.0,27.0,48,0.00,,,0.14,500.000000,,2013-04-15 17:43:00,
2013-04-15 12:12:00,41.0,25.0,-100.00,WSW,240,25.0,43.0,53,0.00,,,0.00,360.000000,,2013-04-15 18:12:00,
2013-04-15 12:23:00,41.0,25.0,-100.00,WSW,240,25.0,43.0,53,0.00,,,0.00,360.000000,,2013-04-15 18:23:00,
2013-04-15 12:32:00,41.0,25.0,-100.00,WSW,240,25.0,43.0,53,0.00,,,0.00,360.000000,,2013-04-15 18:32:00,
2013-04-15 12:42:00,41.0,25.0,-100.00,WSW,240,25.0,43.0,53,0.00,,,0.00,360.000000,,2013-04-15 18:42:00,
2013-04-15 13:12:00,43.0,31.0,-100.00,WNW,301,11.0,33.0,62,0.00,,,0.00,631.000000,,2013-04-15 19:12:00,
2013-04-15 13:22:00,43.0,31.0,-100.00,WNW,301,11.0,33.0,62,0.00,,,0.00,631.000000,,2013-04-15 19:22:00,
2013-04-15 13:34:00,43.0,31.0,-100.00,WNW,301,11.0,33.0,62,0.00,,,0.00,631.000000,,2013-04-15 19:34:00,
2013-04-15 13:44:00,43.0,31.0,-100.00,WNW,301,11.0,33.0,62,0.00,,,0.00,631.000000,,2013-04-15 19:44:00,
2013-04-15 14:11:00,44.0,31.0,-100.00,WNW,296,12.0,22.0,61,0.00,,,0.00,882.000000,,2013-04-15 20:11:00,
2013-04-15 14:22:00,44.0,31.0,-100.00,WNW,296,12.0,22.0,61,0.00,,,0.00,882.000000,,2013-04-15 20:22:00,
2013-04-15 14:32:00,44.0,31.0,-100.00,WNW,296,12.0,22.0,61,0.00,,,0.00,882.000000,,2013-04-15 20:32:00,
2013-04-15 14:42:00,44.0,31.0,-100.00,WNW,296,12.0,22.0,61,0.00,,,0.00,882.000000,,2013-04-15 20:42:00,
2013-04-15 15:12:00,41.0,32.0,-100.00,WNW,298,14.0,32.0,69,0.00,,,0.00,829.000000,,2013-04-15 21:12:00,
2013-04-15 15:22:00,41.0,32.0,-100.00,WNW,298,14.0,32.0,69,0.00,,,0.00,829.000000,,2013-04-15 21:22:00,
2013-04-15 15:32:00,41.0,32.0,-100.00,WNW,298,14.0,32.0,69,0.00,,,0.00,829.000000,,2013-04-15 21:32:00,
2013-04-15 15:42:00,41.0,32.0,-100.00,WNW,298,14.0,32.0,69,0.00,,,0.00,829.000000,,2013-04-15 21:42:00,
2013-04-15 16:13:00,40.0,31.0,-100.00,NW,321,8.0,21.0,71,0.00,,,0.00,716.000000,,2013-04-15 22:13:00,
2013-04-15 16:23:00,40.0,31.0,-100.00,NW,321,8.0,21.0,71,0.00,,,0.00,716.000000,,2013-04-15 22:23:00,
2013-04-15 16:32:00,40.0,31.0,-100.00,NW,321,8.0,21.0,71,0.00,,,0.00,716.000000,,2013-04-15 22:32:00,
2013-04-15 16:42:00,40.0,31.0,-100.00,NW,321,8.0,21.0,71,0.00,,,0.00,716.000000,,2013-04-15 22:42:00,
2013-04-15 17:12:00,40.0,31.0,-100.00,NW,326,9.0,18.0,70,0.00,,,0.00,504.000000,,2013-04-15 23:12:00,
2013-04-15 17:22:00,40.0,31.0,-100.00,NW,326,9.0,18.0,70,0.00,,,0.00,504.000000,,2013-04-15 23:22:00,
2013-04-15 17:32:00,40.0,31.0,-100.00,NW,326,9.0,18.0,70,0.00,,,0.00,504.000000,,2013-04-15 23:32:00,
2013-04-15 17:42:00,40.0,31.0,-100.00,NW,326,9.0,18.0,70,0.00,,,0.00,504.000000,,2013-04-15 23:42:00,
2013-04-15 18:12:00,38.0,30.0,-100.00,NE,42,8.0,19.0,72,0.00,,,0.00,585.000000,,2013-04-16 00:12:00,
2013-04-15 18:22:00,38.0,30.0,-100.00,NE,42,8.0,19.0,72,0.00,,,0.00,585.000000,,2013-04-16 00:22:00,
2013-04-15 18:32:00,38.0,30.0,-100.00,NE,42,8.0,19.0,72,0.00,,,0.00,585.000000,,2013-04-16 00:32:00,
2013-04-15 18:42:00,38.0,30.0,-100.00,NE,42,8.0,19.0,72,0.00,,,0.00,585.000000,,2013-04-16 00:42:00,
2013-04-15 19:12:00,34.0,28.0,-100.00,North,356,5.0,13.0,78,0.00,,,0.00,303.000000,,2013-04-16 01:12:00,
2013-04-15 20:12:00,30.0,27.0,-100.00,NNE,26,5.0,13.0,88,-99.99,,,0.00,64.000000,,2013-04-16 02:12:00,
2013-04-15 20:22:00,30.0,27.0,-100.00,NNE,26,5.0,13.0,88,-99.99,,,0.00,64.000000,,2013-04-16 02:22:00,
2013-04-15 21:12:00,33.0,27.0,-100.00,ENE,75,3.0,12.0,77,-99.99,,,0.00,0.000000,,2013-04-16 03:12:00,
2013-04-15 21:22:00,33.0,27.0,-100.00,ENE,75,3.0,12.0,77,-99.99,,,0.00,0.000000,,2013-04-16 03:22:00,
2013-04-15 21:33:00,33.0,27.0,-100.00,ENE,75,3.0,12.0,77,-99.99,,,0.00,0.000000,,2013-04-16 03:33:00,
2013-04-15 21:43:00,33.0,27.0,-100.00,ENE,75,3.0,12.0,77,-99.99,,,0.00,0.000000,,2013-04-16 03:43:00,
2013-04-15 22:12:00,32.0,24.0,-100.00,NNE,28,3.0,8.0,73,0.00,,,0.00,0.000000,,2013-04-16 04:12:00,
2013-04-15 22:23:00,32.0,24.0,-100.00,NNE,28,3.0,8.0,73,0.00,,,0.00,0.000000,,2013-04-16 04:23:00,
2013-04-15 22:32:00,32.0,24.0,-100.00,NNE,28,3.0,8.0,73,0.00,,,0.00,0.000000,,2013-04-16 04:32:00,
2013-04-15 22:42:00,32.0,24.0,-100.00,NNE,28,3.0,8.0,73,0.00,,,0.00,0.000000,,2013-04-16 04:42:00,
2013-04-15 23:12:00,32.0,25.0,-100.00,NE,46,3.0,9.0,74,0.00,,,0.00,0.000000,,2013-04-16 05:12:00,
2013-04-15 23:22:00,32.0,25.0,-100.00,NE,46,3.0,9.0,74,0.00,,,0.00,0.000000,,2013-04-16 05:22:00,
2013-04-15 23:32:00,32.0,25.0,-100.00,NE,46,3.0,9.0,74,0.00,,,0.00,0.000000,,2013-04-16 05:32:00,
2013-04-15 23:42:00,32.0,25.0,-100.00,NE,46,3.0,9.0,74,0.00,,,0.00,0.000000,,2013-04-16 05:42:00,